Terminal Aerodrome Forecast
Issued by NWS Jackson, MS

Home | Current Version | Previous Version | Text Only | Print | Product List | Glossary On
Versions: 1 2 3 4 5 6 7 8 9 10 11 12 13 14 15 16 17 18 19 20
000
FTUS44 KJAN 260520
TAFHBG
TAF
KHBG 260520Z 2606/2706 13006KT P6SM VCSH BKN006 OVC010
     FM260800 14005KT 6SM -SHRA BR OVC005
     FM261400 16010KT P6SM VCTS OVC015CB
     FM261700 16010KT P6SM VCTS OVC050CB=

USA.gov is the U.S. government's official web portal to all federal, state and local government web resources and services.